Time;durP1;ratioP1;P1;durP2;ratioP2;P2;SDS_P1;SDS_P2;PMS_P1;PMS_P2;Temp;Humidity;BMP_temperature;BMP_pressure;BME280_temperature;BME280_humidity;BME280_pressure;Samples;Min_cycle;Max_cycle;Signal;HPM_P1;HPM_P2
2023/02/09 00:01:28;;;;;;;25.63;14.43;;;;;;;-2.64;63.27;100604.63;5155635;27;42659;-81
2023/02/09 00:03:56;;;;;;;23.37;13.23;;;;;;;-2.49;64.03;100629.09;5155758;27;42984;-81
2023/02/09 00:06:25;;;;;;;27.73;14.23;;;;;;;-2.51;63.95;100626.47;5138313;27;38627;-81
2023/02/09 00:08:53;;;;;;;27.93;14.27;;;;;;;-2.53;63.44;100628.16;5137794;27;40700;-82
2023/02/09 00:13:21;;;;;;;22.53;12.73;;;;;;;-2.55;62.91;100629.84;5155646;27;44716;-82
2023/02/09 00:14:13;;;;;;;27.37;14.00;;;;;;;-2.61;62.56;100630.63;5137890;27;42726;-81
2023/02/09 00:16:41;;;;;;;24.17;12.57;;;;;;;-2.74;62.51;100619.97;5155777;27;40019;-81
2023/02/09 00:19:09;;;;;;;22.73;11.87;;;;;;;-2.81;62.29;100616.38;5137913;27;40472;-81
2023/02/09 00:21:38;;;;;;;24.20;12.47;;;;;;;-2.68;62.05;100651.19;5138157;27;44626;-81
2023/02/09 00:24:06;;;;;;;21.07;11.07;;;;;;;-2.73;62.13;100640.75;5154672;27;43359;-82
2023/02/09 00:26:36;;;;;;;23.93;12.23;;;;;;;-2.76;61.93;100645.88;5137783;27;40415;-80
2023/02/09 00:29:05;;;;;;;25.53;13.97;;;;;;;-2.80;61.83;100641.47;5137445;27;42155;-81
2023/02/09 00:31:33;;;;;;;22.33;13.13;;;;;;;-2.86;62.77;100628.41;5137501;27;43880;-81
2023/02/09 00:34:01;;;;;;;30.50;13.70;;;;;;;-2.91;64.70;100617.03;5137543;27;42988;-81
2023/02/09 00:36:29;;;;;;;28.67;14.83;;;;;;;-2.89;64.62;100617.97;5155291;27;40250;-81
2023/02/09 00:38:57;;;;;;;23.13;12.97;;;;;;;-2.96;65.32;100616.06;5135634;27;41778;-81
2023/02/09 00:44:11;;;;;;;28.70;14.33;;;;;;;-3.02;67.31;100605.59;5134202;27;42533;-81
2023/02/09 00:46:38;;;;;;;27.07;13.60;;;;;;;-3.00;66.84;100606.50;5131727;27;40840;-82
2023/02/09 00:49:07;;;;;;;20.60;13.40;;;;;;;-3.03;66.38;100615.09;5137240;27;42220;-81
2023/02/09 00:51:35;;;;;;;27.23;14.27;;;;;;;-3.05;66.18;100606.41;5158068;27;43562;-81
2023/02/09 00:54:04;;;;;;;24.30;13.43;;;;;;;-3.12;66.04;100603.66;5141152;27;41842;-81
2023/02/09 00:56:31;;;;;;;21.47;12.27;;;;;;;-3.12;66.04;100608.84;5158951;27;40424;-81
2023/02/09 00:59:00;;;;;;;21.20;11.50;;;;;;;-3.35;65.82;100575.56;5140323;27;42338;-81
2023/02/09 01:01:31;;;;;;;26.40;14.17;;;;;;;-3.12;65.64;100619.22;5139414;27;41683;-81
2023/02/09 01:04:01;;;;;;;24.07;13.40;;;;;;;-3.28;65.58;100592.97;5137414;27;41868;-81
2023/02/09 01:06:29;;;;;;;27.17;13.07;;;;;;;-3.16;65.29;100618.25;5137831;27;39067;-81
2023/02/09 01:08:58;;;;;;;23.13;11.27;;;;;;;-3.53;65.14;100554.47;5154823;27;42003;-81
2023/02/09 01:11:27;;;;;;;20.63;11.67;;;;;;;-3.17;65.20;100618.22;5137761;27;44456;-80
2023/02/09 01:13:56;;;;;;;21.20;11.87;;;;;;;-3.18;64.89;100622.53;5155201;27;42369;-80
2023/02/09 01:16:27;;;;;;;21.00;11.87;;;;;;;-3.23;65.15;100606.03;5137569;27;38967;-81
2023/02/09 01:18:58;;;;;;;20.87;12.17;;;;;;;-3.20;65.59;100615.56;5152509;27;41562;-81
2023/02/09 01:21:26;;;;;;;25.67;13.17;;;;;;;-3.38;65.69;100592.75;5137473;27;45034;-80
2023/02/09 01:23:54;;;;;;;25.47;14.17;;;;;;;-3.21;65.61;100624.22;5136623;27;41083;-82
2023/02/09 01:26:22;;;;;;;23.20;12.83;;;;;;;-3.39;65.98;100597.06;5154788;27;41044;-81
2023/02/09 01:28:53;;;;;;;20.40;11.70;;;;;;;-3.23;66.34;100625.91;5154438;27;41723;-82
2023/02/09 01:31:25;;;;;;;24.33;12.77;;;;;;;-3.24;67.62;100609.47;5136543;27;43319;-81
2023/02/09 01:33:54;;;;;;;22.40;12.27;;;;;;;-3.24;67.27;100606.00;5137145;27;42714;-81
2023/02/09 01:36:23;;;;;;;21.77;12.03;;;;;;;-3.26;67.75;100606.84;5137221;27;38929;-81
2023/02/09 01:38:54;;;;;;;24.07;13.50;;;;;;;-3.51;67.28;100560.56;5154036;27;42719;-81
2023/02/09 01:41:22;;;;;;;23.57;12.93;;;;;;;-3.28;67.82;100600.75;5136714;27;41910;-81
2023/02/09 01:43:56;;;;;;;22.43;12.50;;;;;;;-3.29;68.20;100596.41;5136710;27;42899;-81
2023/02/09 01:46:25;;;;;;;24.33;12.97;;;;;;;-3.30;68.15;100591.19;5136784;27;40918;-82
2023/02/09 01:48:59;;;;;;;26.70;14.53;;;;;;;-3.38;70.65;100565.16;5153994;27;42009;-82
2023/02/09 01:51:30;;;;;;;24.40;13.50;;;;;;;-3.43;69.93;100555.50;5136964;27;41544;-81
2023/02/09 01:53:58;;;;;;;22.83;13.30;;;;;;;-3.42;69.42;100562.44;5136460;27;44035;-81
2023/02/09 01:56:30;;;;;;;25.03;13.37;;;;;;;-3.31;70.61;100574.78;5154606;27;40199;-80
2023/02/09 01:58:59;;;;;;;28.87;14.07;;;;;;;-3.42;71.50;100546.91;5136328;27;40700;-83
2023/02/09 02:01:27;;;;;;;25.07;13.20;;;;;;;-3.37;70.92;100556.53;5136115;27;41882;-80
2023/02/09 02:03:55;;;;;;;25.03;13.20;;;;;;;-3.37;70.70;100551.34;5154183;27;42419;-81
2023/02/09 02:06:24;;;;;;;24.43;12.73;;;;;;;-3.73;71.13;100488.44;5153934;27;41493;-82
2023/02/09 02:08:59;;;;;;;27.00;14.57;;;;;;;-3.38;71.55;100552.19;5136417;27;40572;-82
2023/02/09 02:11:28;;;;;;;26.77;13.67;;;;;;;-3.53;71.12;100536.31;5136690;27;41618;-81
2023/02/09 02:13:56;;;;;;;20.07;11.93;;;;;;;-3.41;70.64;100564.19;5153495;27;42296;-81
2023/02/09 02:16:42;;;;;;;22.70;12.70;;;;;;;-3.45;71.22;100563.25;5153791;27;39981;-82
2023/02/09 02:19:47;;;;;;;23.67;13.17;;;;;;;-3.53;72.23;100551.00;5150731;27;41837;-81
2023/02/09 02:22:35;;;;;;;23.37;12.30;;;;;;;-3.53;71.65;100567.41;5136608;27;41796;-81
2023/02/09 02:25:44;;;;;;;23.93;13.30;;;;;;;-3.55;71.44;100566.50;5135910;27;41725;-81
2023/02/09 02:28:59;;;;;;;22.70;11.70;;;;;;;-3.57;70.92;100562.13;5120429;27;41007;-81
2023/02/09 02:32:06;;;;;;;25.20;12.87;;;;;;;-3.60;70.50;100564.66;5128588;27;41986;-82
2023/02/09 02:34:43;;;;;;;25.00;13.07;;;;;;;-3.66;70.00;100558.50;5135897;27;42961;-82
2023/02/09 02:37:26;;;;;;;21.87;12.20;;;;;;;-3.69;70.19;100560.13;5136480;27;40661;-81
2023/02/09 02:40:03;;;;;;;21.90;11.43;;;;;;;-3.81;70.18;100541.75;5135722;27;39550;-81
2023/02/09 02:42:50;;;;;;;21.43;11.40;;;;;;;-3.87;69.49;100542.50;5153214;27;43646;-82
2023/02/09 02:45:26;;;;;;;21.57;10.57;;;;;;;-3.86;69.94;100545.97;5135782;27;42111;-82
2023/02/09 02:48:00;;;;;;;24.20;12.97;;;;;;;-3.93;70.40;100536.31;5153317;27;44045;-82
2023/02/09 02:50:32;;;;;;;25.20;12.00;;;;;;;-3.81;70.91;100563.34;5153274;27;40001;-82
2023/02/09 02:53:04;;;;;;;22.37;12.70;;;;;;;-3.85;71.75;100548.59;5136675;27;42077;-80
2023/02/09 02:55:34;;;;;;;28.43;15.37;;;;;;;-3.88;71.92;100550.22;5152117;27;42663;-81
2023/02/09 02:58:06;;;;;;;24.50;13.53;;;;;;;-4.01;72.45;100524.06;5136038;27;42797;-81
2023/02/09 03:00:39;;;;;;;27.00;13.90;;;;;;;-3.90;73.07;100541.56;5152551;27;40081;-80
2023/02/09 03:03:14;;;;;;;22.47;12.47;;;;;;;-3.96;73.39;100525.91;5150810;27;41836;-82
2023/02/09 03:05:45;;;;;;;21.50;12.87;;;;;;;-3.85;74.11;100537.38;5152713;27;44287;-81
2023/02/09 03:08:13;;;;;;;24.27;12.57;;;;;;;-3.83;72.89;100543.47;5153210;27;41537;-82
2023/02/09 03:10:42;;;;;;;23.87;11.77;;;;;;;-3.83;72.43;100549.47;5135590;27;39229;-80
2023/02/09 03:13:22;;;;;;;21.47;11.33;;;;;;;-3.83;72.12;100552.06;5155103;27;41639;-81
2023/02/09 03:16:01;;;;;;;26.10;14.13;;;;;;;-3.93;73.51;100528.53;5157305;27;42885;-81
2023/02/09 03:18:36;;;;;;;23.80;12.90;;;;;;;-3.86;73.47;100544.25;5139564;27;41201;-81
2023/02/09 03:21:14;;;;;;;22.77;12.70;;;;;;;-3.94;73.41;100530.25;5156065;27;39859;-82
2023/02/09 03:23:47;;;;;;;23.73;13.67;;;;;;;-3.88;73.25;100545.06;5154481;27;41738;-81
2023/02/09 03:26:22;;;;;;;24.07;13.30;;;;;;;-3.89;73.00;100543.31;5156539;27;42697;-82
2023/02/09 03:28:55;;;;;;;25.03;13.53;;;;;;;-3.89;73.45;100543.31;5139123;27;42960;-82
2023/02/09 03:31:24;;;;;;;25.23;12.93;;;;;;;-3.97;73.36;100526.75;5139078;27;39057;-82
2023/02/09 03:33:52;;;;;;;22.27;13.73;;;;;;;-3.97;73.82;100530.19;5156636;27;41879;-82
2023/02/09 03:36:21;;;;;;;25.97;14.20;;;;;;;-3.95;73.15;100540.56;5156221;27;42849;-82
2023/02/09 03:38:49;;;;;;;22.07;12.27;;;;;;;-4.02;72.81;100543.03;5138579;27;42449;-81
2023/02/09 03:41:17;;;;;;;26.57;12.87;;;;;;;-4.02;73.38;100532.69;5156163;27;39263;-82
2023/02/09 03:46:35;;;;;;;30.90;14.23;;;;;;;-4.15;74.31;100529.78;5134223;27;42796;-81
2023/02/09 03:49:03;;;;;;;27.10;13.77;;;;;;;-4.14;73.50;100537.56;5138401;27;41164;-82
2023/02/09 03:51:32;;;;;;;23.03;12.70;;;;;;;-4.17;72.81;100541.78;5138745;27;40524;-81
2023/02/09 03:54:00;;;;;;;23.40;12.20;;;;;;;-4.32;72.47;100525.91;5155604;27;40666;-82
2023/02/09 03:56:28;;;;;;;19.77;10.90;;;;;;;-4.76;72.02;100464.56;5155897;27;42863;-81
2023/02/09 03:58:56;;;;;;;20.50;10.40;;;;;;;-4.29;71.62;100557.91;5138337;27;43567;-82
2023/02/09 04:01:24;;;;;;;23.87;11.73;;;;;;;-4.47;71.28;100532.47;5138508;27;39565;-82
2023/02/09 04:03:51;;;;;;;23.40;11.40;;;;;;;-4.41;71.21;100557.59;5155553;27;40759;-81
2023/02/09 04:06:19;;;;;;;17.10;9.43;;;;;;;-4.51;71.42;100540.09;5138067;27;41845;-81
2023/02/09 04:08:48;;;;;;;24.00;13.67;;;;;;;-4.46;71.94;100554.03;5138246;27;41664;-81
2023/02/09 04:11:16;;;;;;;22.67;11.83;;;;;;;-4.57;72.15;100539.94;5138137;27;38967;-82
2023/02/09 04:13:44;;;;;;;22.30;11.67;;;;;;;-4.53;71.99;100562.47;5155615;27;42587;-82
2023/02/09 04:16:12;;;;;;;24.67;11.70;;;;;;;-4.66;72.60;100544.88;5155327;27;41671;-81
2023/02/09 04:18:40;;;;;;;23.07;12.13;;;;;;;-4.58;73.07;100553.75;5155498;27;41027;-82
2023/02/09 04:21:08;;;;;;;26.03;12.63;;;;;;;-4.59;72.66;100557.16;5155620;27;40067;-81
2023/02/09 04:23:36;;;;;;;25.73;12.60;;;;;;;-4.60;73.71;100550.22;5137704;27;43273;-81
2023/02/09 04:26:06;;;;;;;22.20;11.97;;;;;;;-4.62;74.12;100547.59;5137570;27;43196;-82
2023/02/09 04:28:34;;;;;;;24.33;13.20;;;;;;;-4.62;74.69;100544.13;5156555;27;43270;-82
2023/02/09 04:31:02;;;;;;;23.53;11.40;;;;;;;-4.71;74.99;100531.88;5154662;27;40022;-82
2023/02/09 04:33:30;;;;;;;28.03;13.80;;;;;;;-4.77;75.45;100527.41;5156396;27;42568;-82
2023/02/09 04:35:58;;;;;;;22.57;11.77;;;;;;;-4.66;74.36;100550.06;5137486;27;41669;-82
2023/02/09 04:38:26;;;;;;;24.90;13.13;;;;;;;-4.66;74.29;100555.22;5155152;27;43492;-82
2023/02/09 04:40:55;;;;;;;20.77;12.03;;;;;;;-4.81;74.29;100535.91;5154574;27;41394;-81
2023/02/09 04:43:25;;;;;;;19.83;12.10;;;;;;;-5.02;74.78;100496.59;5137912;27;41125;-82
2023/02/09 04:45:53;;;;;;;24.87;12.30;;;;;;;-4.72;73.92;100545.63;5137549;27;41874;-83
2023/02/09 04:48:23;;;;;;;21.37;11.70;;;;;;;-4.70;73.79;100549.97;5137742;27;42394;-80
2023/02/09 04:50:51;;;;;;;24.60;11.30;;;;;;;-4.71;73.77;100553.41;5137628;27;42283;-81
2023/02/09 04:53:20;;;;;;;19.53;11.60;;;;;;;-4.83;73.97;100537.59;5137562;27;40924;-82
2023/02/09 04:55:49;;;;;;;22.23;10.90;;;;;;;-4.73;74.48;100552.50;5154537;27;42957;-80
2023/02/09 05:01:07;;;;;;;19.03;10.37;;;;;;;-4.78;73.74;100551.50;5154493;27;40262;-82
2023/02/09 05:03:35;;;;;;;21.73;10.57;;;;;;;-4.93;74.24;100520.09;5137601;27;40839;-81
2023/02/09 05:06:04;;;;;;;21.43;12.17;;;;;;;-4.81;73.72;100541.06;5137123;27;41775;-81
2023/02/09 05:08:32;;;;;;;21.53;11.90;;;;;;;-4.83;73.38;100542.78;5154389;27;42123;-81
2023/02/09 05:11:01;;;;;;;22.40;11.80;;;;;;;-4.85;73.10;100548.72;5137163;27;41200;-81
2023/02/09 05:13:29;;;;;;;18.90;11.33;;;;;;;-4.88;72.84;100544.34;5154915;27;43333;-81
2023/02/09 05:15:56;;;;;;;23.07;10.43;;;;;;;-4.91;72.82;100539.09;5138219;27;43534;-81
2023/02/09 05:18:26;;;;;;;18.83;10.23;;;;;;;-4.91;72.45;100539.09;5155645;27;41031;-81
2023/02/09 05:20:54;;;;;;;18.43;9.80;;;;;;;-4.94;72.69;100544.16;5137414;27;39050;-81
2023/02/09 05:23:22;;;;;;;19.20;9.97;;;;;;;-5.08;73.11;100519.72;5155306;27;40892;-81
2023/02/09 08:39:38;;;;;;;16.63;9.97;;;;;;;2.51;60.54;100673.41;5109781;28;20521;-79
2023/02/09 08:42:06;;;;;;;15.83;10.57;;;;;;;3.21;57.47;100683.72;5108955;28;39068;-79
2023/02/09 08:44:34;;;;;;;18.00;10.03;;;;;;;4.22;54.95;100693.66;5092438;28;40486;-80
2023/02/09 08:47:01;;;;;;;15.23;9.63;;;;;;;6.21;50.83;100667.72;5092286;28;42618;-81
2023/02/09 08:49:29;;;;;;;15.53;10.50;;;;;;;8.28;45.23;100696.09;5110023;28;42208;-81
2023/02/09 08:51:57;;;;;;;15.63;9.23;;;;;;;10.16;42.19;100720.91;5110206;28;40144;-81
2023/02/09 08:54:25;;;;;;;14.97;10.27;;;;;;;11.63;39.46;100733.59;5108603;28;41780;-81
2023/02/09 08:56:54;;;;;;;12.80;9.33;;;;;;;12.52;36.66;100747.00;5091519;28;41704;-82
2023/02/09 08:59:22;;;;;;;12.43;9.33;;;;;;;11.87;35.69;100748.63;5091377;28;42182;-82
2023/02/09 09:01:50;;;;;;;12.10;9.00;;;;;;;10.39;36.17;100754.66;5092839;28;39008;-81
2023/02/09 09:04:19;;;;;;;12.43;9.57;;;;;;;8.88;37.40;100751.00;5108180;28;42644;-81
2023/02/09 09:06:47;;;;;;;11.20;7.93;;;;;;;7.50;39.92;100710.16;5142813;27;43744;-81
2023/02/09 09:09:24;;;;;;;14.37;8.27;;;;;;;7.43;40.25;100734.91;5092319;28;42130;-82
2023/02/09 09:11:52;;;;;;;13.60;8.57;;;;;;;8.96;37.75;100748.16;5125619;27;41741;-80
2023/02/09 09:14:22;;;;;;;12.93;8.90;;;;;;;8.91;37.47;100744.75;5109112;28;41551;-81
2023/02/09 09:16:49;;;;;;;13.43;8.13;;;;;;;9.34;36.85;100745.38;5142879;27;42702;-81
2023/02/09 09:19:17;;;;;;;11.47;8.37;;;;;;;9.00;37.82;100740.13;5125207;27;40946;-82
2023/02/09 09:21:45;;;;;;;13.43;7.83;;;;;;;8.11;37.95;100743.13;5108174;28;39040;-80
2023/02/09 09:24:13;;;;;;;11.43;7.93;;;;;;;7.33;39.09;100722.78;5125066;27;41360;-82
2023/02/09 09:26:40;;;;;;;11.17;8.40;;;;;;;7.36;39.18;100733.28;5091205;28;42914;-81
2023/02/09 09:29:10;;;;;;;13.47;9.17;;;;;;;7.07;39.82;100735.59;5142259;27;41629;-80
2023/02/09 09:31:39;;;;;;;10.20;7.80;;;;;;;7.17;40.69;100705.56;5142742;27;39619;-81
2023/02/09 09:34:07;;;;;;;12.60;8.53;;;;;;;7.91;39.68;100721.63;5107183;28;42739;-81
2023/02/09 09:36:34;;;;;;;11.07;8.10;;;;;;;9.83;37.63;100732.53;5108655;28;43810;-81
2023/02/09 09:39:02;;;;;;;13.03;8.57;;;;;;;11.60;34.52;100759.41;5106840;28;41254;-82
2023/02/09 09:41:34;;;;;;;13.10;9.20;;;;;;;12.48;32.92;100772.84;5142058;27;39979;-82
2023/02/09 09:44:03;;;;;;;12.07;8.20;;;;;;;11.49;33.31;100767.75;5107584;28;40971;-81
2023/02/09 09:46:36;;;;;;;12.77;9.13;;;;;;;10.17;35.61;100757.06;5090502;28;41816;-81
2023/02/09 09:49:06;;;;;;;10.67;8.53;;;;;;;8.88;36.86;100736.94;5138200;27;43378;-81
2023/02/09 09:51:39;;;;;;;12.70;8.47;;;;;;;8.09;38.50;100733.50;5094979;28;40247;-82
2023/02/09 09:54:13;;;;;;;10.57;8.47;;;;;;;7.43;39.45;100716.44;5094296;28;41767;-80
2023/02/09 09:56:41;;;;;;;11.13;8.63;;;;;;;7.66;39.76;100734.47;5076797;28;41518;-81
2023/02/09 09:59:16;;;;;;;11.27;8.80;;;;;;;8.23;38.91;100721.75;5093446;28;43175;-81
2023/02/09 10:01:44;;;;;;;14.07;8.70;;;;;;;8.81;37.66;100733.56;5090402;28;40936;-80
2023/02/09 10:04:15;;;;;;;14.47;9.10;;;;;;;9.77;36.79;100760.03;5076149;28;41642;-81
2023/02/09 10:06:45;;;;;;;11.43;8.77;;;;;;;10.64;35.36;100745.00;5093229;28;43001;-80
2023/02/09 10:09:25;;;;;;;11.27;8.10;;;;;;;12.14;33.03;100760.00;5076062;28;41489;-81
2023/02/09 10:12:01;;;;;;;13.70;9.63;;;;;;;13.57;31.22;100785.16;5076416;28;38651;-81
2023/02/09 10:14:29;;;;;;;13.07;9.93;;;;;;;14.83;29.70;100802.38;5093175;28;40817;-81
2023/02/09 10:16:57;;;;;;;12.33;9.43;;;;;;;15.07;29.78;100796.69;5093336;28;42677;-80
2023/02/09 10:19:28;;;;;;;11.70;9.50;;;;;;;15.70;29.38;100793.50;5127062;27;42148;-81
2023/02/09 10:21:56;;;;;;;12.37;10.23;;;;;;;16.44;27.87;100801.94;5124378;27;41376;-81
2023/02/09 10:24:26;;;;;;;10.43;8.40;;;;;;;16.09;27.90;100796.69;5094474;28;42770;-80
2023/02/09 10:27:13;;;;;;;11.27;9.40;;;;;;;16.40;27.45;100792.34;5109976;28;44424;-81
2023/02/09 10:29:41;;;;;;;14.03;9.93;;;;;;;16.13;27.20;100782.22;5124721;27;43140;-80
2023/02/09 10:32:16;;;;;;;10.63;8.90;;;;;;;15.29;28.53;100777.78;5092952;28;40065;-80
2023/02/09 10:34:48;;;;;;;10.73;8.70;;;;;;;15.43;28.30;100775.28;5092489;28;41715;-80
2023/02/09 10:37:22;;;;;;;11.03;9.33;;;;;;;16.08;27.49;100765.56;5093283;28;43511;-81
2023/02/09 10:40:05;;;;;;;12.97;9.80;;;;;;;17.20;26.38;100771.63;5109216;28;41386;-80
2023/02/09 10:42:36;;;;;;;12.77;10.07;;;;;;;17.97;25.79;100745.53;5076199;28;40373;-80
2023/02/09 10:45:12;;;;;;;12.50;9.57;;;;;;;18.89;24.76;100774.41;5094335;28;42286;-81
2023/02/09 10:47:40;;;;;;;11.87;10.30;;;;;;;19.91;23.41;100785.34;5075925;28;41739;-81
2023/02/09 10:50:27;;;;;;;13.90;10.67;;;;;;;21.53;22.53;100785.88;5092545;28;41077;-81
2023/02/09 10:52:58;;;;;;;10.23;9.23;;;;;;;22.96;21.44;100768.97;5092841;28;40316;-81
2023/02/09 10:55:32;;;;;;;12.23;11.03;;;;;;;24.77;19.94;100763.00;5092255;28;41957;-81
2023/02/09 10:58:06;;;;;;;11.77;10.57;;;;;;;25.91;18.60;100758.53;5089414;28;42982;-79
2023/02/09 11:00:39;;;;;;;12.00;10.73;;;;;;;26.61;17.86;100750.78;5091486;28;42215;-80
2023/02/09 11:03:17;;;;;;;11.43;10.33;;;;;;;27.65;16.87;100757.41;5092055;28;39213;-81
2023/02/09 11:06:01;;;;;;;13.50;11.63;;;;;;;28.62;16.20;100752.47;5075162;28;42627;-81
2023/02/09 11:08:43;;;;;;;12.77;11.48;;;;;;;29.92;15.40;100745.19;5075131;28;44547;-81
2023/02/09 11:11:28;;;;;;;12.02;10.35;;;;;;;30.50;14.91;100726.75;5091677;28;43846;-81
2023/02/09 11:13:57;;;;;;;12.20;10.93;;;;;;;30.88;14.46;100727.75;5090406;28;40464;-81
2023/02/09 11:16:43;;;;;;;12.75;11.05;;;;;;;31.27;14.16;100723.00;5092024;28;42065;-81
2023/02/09 11:19:24;;;;;;;13.23;11.48;;;;;;;31.86;14.57;100711.31;5072114;28;45223;-81
2023/02/09 11:22:06;;;;;;;11.93;10.82;;;;;;;32.43;13.83;100717.81;5089111;28;42138;-80
2023/02/09 11:24:59;;;;;;;13.15;11.85;;;;;;;31.31;14.39;100713.38;5074716;28;38853;-80
2023/02/09 11:27:41;;;;;;;12.70;11.52;;;;;;;31.03;14.34;100707.56;5093256;28;42032;-80
2023/02/09 11:30:22;;;;;;;12.03;10.87;;;;;;;29.96;14.67;100674.69;5075040;28;44491;-81
2023/02/09 11:32:54;;;;;;;12.40;11.20;;;;;;;27.89;16.80;100673.16;5092269;28;41449;-80
2023/02/09 11:35:26;;;;;;;12.07;10.87;;;;;;;26.25;18.10;100662.88;5090581;28;40799;-80
2023/02/09 11:38:00;;;;;;;13.60;12.20;;;;;;;25.91;17.89;100649.06;5089925;28;41838;-80
2023/02/09 11:40:34;;;;;;;15.27;11.73;;;;;;;26.70;17.12;100663.75;5092146;28;43257;-80
2023/02/09 11:43:12;;;;;;;13.97;12.37;;;;;;;27.52;16.52;100633.44;5092064;28;42881;-80
2023/02/09 11:45:45;;;;;;;13.87;12.47;;;;;;;27.97;16.17;100654.09;5074448;28;40213;-80
2023/02/09 11:48:20;;;;;;;12.80;11.60;;;;;;;27.79;15.95;100623.41;5074650;28;42864;-79
2023/02/09 11:50:59;;;;;;;13.47;12.23;;;;;;;27.97;15.27;100658.69;5091072;28;43808;-80
2023/02/09 11:53:35;;;;;;;14.65;13.07;;;;;;;28.40;15.54;100664.00;5088739;28;42262;-81
2023/02/09 11:56:06;;;;;;;13.25;11.75;;;;;;;29.05;15.57;100655.06;5091168;28;39947;-80
2023/02/09 11:58:44;;;;;;;13.98;11.60;;;;;;;29.84;15.54;100651.50;5074600;28;40895;-80
2023/02/09 12:01:20;;;;;;;13.35;11.98;;;;;;;30.43;15.06;100616.34;5091525;28;44253;-81
2023/02/09 12:03:57;;;;;;;12.10;10.88;;;;;;;31.60;14.43;100657.81;5074666;28;42134;-81
2023/02/09 12:06:26;;;;;;;13.13;11.93;;;;;;;32.35;13.47;100641.13;5091584;28;40258;-81
2023/02/09 12:09:03;;;;;;;15.98;11.45;;;;;;;32.83;12.97;100652.44;5074123;28;41774;-81
2023/02/09 12:11:40;;;;;;;12.27;11.18;;;;;;;33.19;12.58;100649.56;5088356;28;43829;-81
2023/02/09 12:14:22;;;;;;;13.32;11.82;;;;;;;33.53;12.38;100640.53;5090958;28;42935;-81
2023/02/09 12:16:58;;;;;;;13.35;12.05;;;;;;;33.94;11.98;100637.84;5074186;28;40132;-81
2023/02/09 12:19:33;;;;;;;11.60;10.55;;;;;;;34.35;12.63;100629.56;5088174;28;43339;-81
2023/02/09 12:22:42;;;;;;;11.85;10.65;;;;;;;34.76;12.31;100629.47;5090916;28;41801;-81
2023/02/09 12:25:45;;;;;;;12.38;10.93;;;;;;;34.95;12.30;100627.78;5089277;28;43116;-81
2023/02/09 12:28:37;;;;;;;11.93;10.82;;;;;;;35.02;12.11;100628.63;5089468;28;40260;-81
2023/02/09 12:31:09;;;;;;;13.65;12.30;;;;;;;35.02;11.83;100612.09;5073803;28;40544;-81
2023/02/09 12:33:38;;;;;;;11.57;10.45;;;;;;;35.16;12.06;100604.69;5091098;28;42121;-81
2023/02/09 12:36:30;;;;;;;12.88;11.75;;;;;;;35.12;11.56;100615.28;5090830;28;44017;-81
2023/02/09 12:39:05;;;;;;;11.88;10.77;;;;;;;35.03;11.33;100615.69;5090458;28;39316;-82
2023/02/09 12:42:06;;;;;;;11.95;10.85;;;;;;;34.85;11.64;100605.34;5090897;28;42721;-81
2023/02/09 12:44:53;;;;;;;11.90;10.80;;;;;;;34.78;11.85;100601.72;5090670;28;45015;-81
2023/02/09 12:47:45;;;;;;;11.25;10.25;;;;;;;34.48;11.98;100584.75;5074169;28;41580;-81
2023/02/09 12:50:24;;;;;;;12.90;11.60;;;;;;;34.10;12.42;100582.50;5090937;28;38739;-81
2023/02/09 12:53:29;;;;;;;12.65;11.45;;;;;;;33.75;12.31;100581.75;5088817;28;42173;-81
2023/02/09 12:56:02;;;;;;;13.27;11.85;;;;;;;33.61;11.70;100596.44;5073606;28;44566;-81
2023/02/09 12:58:53;;;;;;;13.45;11.38;;;;;;;33.21;12.39;100597.19;5087809;28;43138;-81
2023/02/09 13:02:01;;;;;;;12.45;11.25;;;;;;;33.13;12.25;100596.31;5090848;28;42687;-81
2023/02/09 13:04:32;;;;;;;14.13;12.77;;;;;;;33.00;12.38;100590.72;5073523;28;41284;-81
2023/02/09 13:07:01;;;;;;;13.68;12.38;;;;;;;32.71;11.90;100612.78;5090765;28;42802;-81
2023/02/09 13:09:38;;;;;;;13.70;12.35;;;;;;;32.45;12.95;100600.50;5073385;28;42576;-81
2023/02/09 13:12:13;;;;;;;13.32;11.93;;;;;;;32.21;12.78;100592.66;5074000;28;40170;-81
2023/02/09 13:14:44;;;;;;;13.18;11.88;;;;;;;31.84;12.75;100601.03;5073308;28;42825;-82
2023/02/09 13:17:35;;;;;;;13.73;12.20;;;;;;;29.38;13.76;100596.69;5090717;28;43511;-81
2023/02/09 13:20:44;;;;;;;14.00;12.70;;;;;;;26.86;15.35;100592.31;5073315;28;43699;-80
2023/02/09 13:23:34;;;;;;;14.97;12.53;;;;;;;25.78;15.86;100589.69;5080202;28;39607;-81
2023/02/09 13:26:17;;;;;;;13.37;12.07;;;;;;;25.83;16.25;100571.13;5092888;28;41527;-81
2023/02/09 13:28:44;;;;;;;12.80;11.43;;;;;;;26.43;15.35;100595.88;5093913;28;43249;-81
2023/02/09 13:31:31;;;;;;;14.90;12.33;;;;;;;25.96;15.75;100585.19;5094149;28;42375;-81
2023/02/09 13:34:08;;;;;;;13.53;11.97;;;;;;;24.22;16.44;100591.97;5091275;28;40965;-81
2023/02/09 13:36:46;;;;;;;16.00;13.53;;;;;;;22.24;17.60;100598.53;5094120;28;43391;-81
2023/02/09 13:39:22;;;;;;;14.80;12.40;;;;;;;20.70;19.19;100585.75;5093247;28;41890;-80
2023/02/09 13:41:52;;;;;;;13.53;12.00;;;;;;;19.50;19.97;100570.56;5076904;28;42585;-80
2023/02/09 13:44:22;;;;;;;16.63;13.23;;;;;;;18.46;20.96;100569.72;5094569;28;40285;-81
2023/02/09 13:46:56;;;;;;;15.83;13.73;;;;;;;17.52;21.78;100560.75;5093698;28;42206;-80
2023/02/09 13:49:27;;;;;;;18.37;15.23;;;;;;;16.60;22.44;100555.81;5076520;28;41644;-81
2023/02/09 13:52:13;;;;;;;18.47;14.93;;;;;;;15.74;23.81;100552.81;5092013;28;42376;-80
2023/02/09 13:54:43;;;;;;;17.53;15.03;;;;;;;15.14;24.35;100549.03;5091228;28;40335;-80
2023/02/09 13:57:28;;;;;;;19.60;16.37;;;;;;;14.53;24.96;100530.94;5076678;28;42590;-80
2023/02/09 14:00:10;;;;;;;18.23;14.97;;;;;;;14.28;25.40;100522.47;5093012;28;41845;-80
2023/02/09 14:02:49;;;;;;;24.70;15.50;;;;;;;15.05;25.12;100542.41;5093398;28;41417;-80
2023/02/09 14:05:29;;;;;;;18.70;15.17;;;;;;;14.91;25.35;100536.06;5076372;28;41224;-80
2023/02/09 14:07:57;;;;;;;20.30;15.10;;;;;;;15.27;25.61;100530.53;5090787;28;41858;-80
2023/02/09 14:10:26;;;;;;;19.73;14.60;;;;;;;16.03;25.17;100539.59;5092915;28;43522;-81
2023/02/09 14:12:58;;;;;;;20.57;15.60;;;;;;;16.77;24.48;100537.81;5093533;28;41301;-79
2023/02/09 14:18:23;;;;;;;18.47;15.30;;;;;;;17.79;23.87;100541.19;5094389;28;41824;-80
2023/02/09 14:21:13;;;;;;;18.10;14.50;;;;;;;18.12;23.65;100541.63;5092556;28;42792;-80
2023/02/09 14:23:43;;;;;;;24.87;16.90;;;;;;;18.15;22.66;100557.53;5089818;28;42292;-80
2023/02/09 14:26:21;;;;;;;23.33;16.67;;;;;;;18.28;23.26;100550.38;5093897;28;40479;-80
2023/02/09 14:28:52;;;;;;;21.37;15.83;;;;;;;18.34;23.64;100543.72;5090128;28;41707;-80
2023/02/09 14:31:22;;;;;;;20.07;16.57;;;;;;;18.29;23.17;100549.41;5092625;28;42810;-80
2023/02/09 14:33:53;;;;;;;20.63;16.33;;;;;;;18.25;23.44;100552.41;5093990;28;42622;-80
2023/02/09 14:36:32;;;;;;;22.03;16.83;;;;;;;18.14;23.83;100545.09;5092721;28;39812;-80
2023/02/09 14:39:15;;;;;;;19.47;16.07;;;;;;;18.04;23.76;100549.34;5092018;28;41949;-81
2023/02/09 14:41:56;;;;;;;22.03;16.23;;;;;;;17.67;23.83;100512.53;5075664;28;42560;-80
2023/02/09 14:44:24;;;;;;;19.00;15.67;;;;;;;17.59;24.18;100548.66;5090235;28;42099;-81
2023/02/09 14:46:54;;;;;;;22.07;16.47;;;;;;;17.29;24.25;100550.63;5092912;28;40137;-80
2023/02/09 14:49:22;;;;;;;19.77;15.37;;;;;;;17.09;24.32;100561.72;5092327;28;41808;-80
2023/02/09 14:52:02;;;;;;;18.33;15.80;;;;;;;16.56;24.60;100560.50;5093782;28;42857;-80
2023/02/09 14:54:31;;;;;;;19.07;15.67;;;;;;;15.66;25.62;100540.84;5092244;28;42934;-80
2023/02/09 14:57:02;;;;;;;17.33;14.60;;;;;;;14.82;26.30;100539.25;5075629;28;39306;-80
2023/02/09 14:59:31;;;;;;;20.90;16.47;;;;;;;13.99;26.53;100524.78;5075133;28;41035;-80
2023/02/09 15:01:59;;;;;;;18.87;15.17;;;;;;;13.28;27.37;100530.94;5075514;28;43463;-80
2023/02/09 15:04:27;;;;;;;19.97;15.30;;;;;;;12.65;28.56;100519.63;5093193;28;42166;-80
2023/02/09 15:07:02;;;;;;;21.40;15.47;;;;;;;12.06;29.31;100520.41;5093731;28;39868;-79